Time,TemperatureF,DewpointF,PressureIn,WindDirection,WindDirectionDegrees,WindSpeedMPH,WindSpeedGustMPH,Humidity,HourlyPrecipIn,Conditions,Clouds,dailyrainin,SoftwareType,DateUTC
2013-07-18 00:00:00,74.2,71.4,30.20,North,355,0.0,0.0,91,0.00,,,0.00,Wunderground v.1.15,2013-07-18 04:00:00,
2013-07-18 00:05:00,74.0,71.2,30.20,North,355,0.0,0.0,91,0.00,,,0.00,Wunderground v.1.15,2013-07-18 04:05:00,
2013-07-18 00:10:00,73.7,71.2,30.20,North,355,0.0,0.0,92,0.00,,,0.00,Wunderground v.1.15,2013-07-18 04:10:00,
2013-07-18 00:15:00,73.5,71.0,30.20,North,355,0.0,0.0,92,0.00,,,0.00,Wunderground v.1.15,2013-07-18 04:15:00,
2013-07-18 00:20:00,73.3,71.2,30.20,North,356,0.0,0.0,93,0.00,,,0.00,Wunderground v.1.15,2013-07-18 04:20:00,
2013-07-18 00:25:00,73.1,70.6,30.20,North,355,0.0,0.0,92,0.00,,,0.00,Wunderground v.1.15,2013-07-18 04:25:00,
2013-07-18 00:30:00,72.9,70.8,30.20,North,355,0.0,0.0,93,0.00,,,0.00,Wunderground v.1.15,2013-07-18 04:30:00,
2013-07-18 00:35:00,73.1,71.3,30.20,North,355,0.0,1.0,94,0.00,,,0.00,Wunderground v.1.15,2013-07-18 04:35:00,
2013-07-18 00:45:00,73.4,70.9,30.19,North,355,0.0,0.0,92,0.00,,,0.00,Wunderground v.1.15,2013-07-18 04:45:00,
2013-07-18 00:50:00,73.1,71.0,30.19,North,355,0.0,0.0,93,0.00,,,0.00,Wunderground v.1.15,2013-07-18 04:50:00,
2013-07-18 00:55:00,72.9,71.1,30.19,North,355,0.0,1.0,94,0.00,,,0.00,Wunderground v.1.15,2013-07-18 04:55:00,
2013-07-18 01:00:00,73.2,71.4,30.19,North,355,1.0,1.0,94,0.00,,,0.00,Wunderground v.1.15,2013-07-18 05:00:00,
2013-07-18 01:10:00,74.2,71.4,30.19,NNW,348,1.0,1.0,91,0.00,,,0.00,Wunderground v.1.15,2013-07-18 05:10:00,
2013-07-18 01:15:00,73.7,71.2,30.19,NNW,338,1.0,1.0,92,0.00,,,0.00,Wunderground v.1.15,2013-07-18 05:15:00,
2013-07-18 01:20:00,73.6,71.1,30.18,NNW,347,1.0,1.0,92,0.00,,,0.00,Wunderground v.1.15,2013-07-18 05:20:00,
2013-07-18 01:25:00,73.8,71.3,30.19,NNW,347,1.0,1.0,92,0.00,,,0.00,Wunderground v.1.15,2013-07-18 05:25:00,
2013-07-18 01:30:00,74.3,71.5,30.19,North,360,1.0,1.0,91,0.00,,,0.00,Wunderground v.1.15,2013-07-18 05:30:00,
2013-07-18 01:35:00,74.4,71.6,30.18,North,360,1.0,1.0,91,0.00,,,0.00,Wunderground v.1.15,2013-07-18 05:35:00,
2013-07-18 01:40:00,74.2,71.4,30.18,North,359,0.0,0.0,91,0.00,,,0.00,Wunderground v.1.15,2013-07-18 05:40:00,
2013-07-18 01:50:00,73.7,70.9,30.18,North,360,0.0,0.0,91,0.00,,,0.00,Wunderground v.1.15,2013-07-18 05:50:00,
2013-07-18 01:55:00,73.3,70.8,30.18,North,359,0.0,0.0,92,0.00,,,0.00,Wunderground v.1.15,2013-07-18 05:55:00,
2013-07-18 02:00:00,73.0,70.9,30.18,North,360,0.0,0.0,93,0.00,,,0.00,Wunderground v.1.15,2013-07-18 06:00:00,
2013-07-18 02:10:00,72.8,71.0,30.18,North,359,0.0,0.0,94,0.00,,,0.00,Wunderground v.1.15,2013-07-18 06:10:00,
2013-07-18 02:15:00,72.9,71.1,30.18,North,360,0.0,1.0,94,0.00,,,0.00,Wunderground v.1.15,2013-07-18 06:15:00,
2013-07-18 02:20:00,73.1,71.3,30.18,North,354,1.0,1.0,94,0.00,,,0.00,Wunderground v.1.15,2013-07-18 06:20:00,
2013-07-18 02:25:00,73.3,71.2,30.18,North,354,0.0,1.0,93,0.00,,,0.00,Wunderground v.1.15,2013-07-18 06:25:00,
2013-07-18 02:30:00,73.2,71.1,30.18,ESE,113,0.0,0.0,93,0.00,,,0.00,Wunderground v.1.15,2013-07-18 06:30:00,
2013-07-18 02:35:00,72.8,70.7,30.18,SSE,151,0.0,0.0,93,0.00,,,0.00,Wunderground v.1.15,2013-07-18 06:35:00,
2013-07-18 02:40:00,72.7,70.9,30.18,SSE,151,0.0,0.0,94,0.00,,,0.00,Wunderground v.1.15,2013-07-18 06:40:00,
2013-07-18 02:50:00,72.7,70.9,30.17,SSE,150,0.0,0.0,94,0.00,,,0.00,Wunderground v.1.15,2013-07-18 06:50:00,
2013-07-18 02:55:00,72.5,70.7,30.17,SSE,151,0.0,0.0,94,0.00,,,0.00,Wunderground v.1.15,2013-07-18 06:55:00,
2013-07-18 03:00:00,72.5,71.0,30.17,SSE,150,0.0,0.0,95,0.00,,,0.00,Wunderground v.1.15,2013-07-18 07:00:00,
2013-07-18 03:10:00,72.5,71.0,30.17,SSE,150,0.0,0.0,95,0.00,,,0.00,Wunderground v.1.15,2013-07-18 07:10:00,
2013-07-18 03:15:00,72.4,70.9,30.17,WSW,250,0.0,0.0,95,0.00,,,0.00,Wunderground v.1.15,2013-07-18 07:15:00,
2013-07-18 03:25:00,72.9,71.1,30.17,NNW,333,1.0,1.0,94,0.00,,,0.00,Wunderground v.1.15,2013-07-18 07:25:00,
2013-07-18 03:30:00,73.3,71.5,30.17,NNW,328,1.0,1.0,94,0.00,,,0.00,Wunderground v.1.15,2013-07-18 07:30:00,
2013-07-18 03:35:00,73.6,71.4,30.17,NNW,328,1.0,1.0,93,0.00,,,0.00,Wunderground v.1.15,2013-07-18 07:35:00,
2013-07-18 03:40:00,73.8,71.3,30.17,NNW,328,0.0,0.0,92,0.00,,,0.00,Wunderground v.1.15,2013-07-18 07:40:00,
2013-07-18 03:45:00,73.6,71.1,30.17,NNW,328,0.0,0.0,92,0.00,,,0.00,Wunderground v.1.15,2013-07-18 07:45:00,
2013-07-18 03:55:00,73.0,70.9,30.16,NNW,328,0.0,0.0,93,0.00,,,0.00,Wunderground v.1.15,2013-07-18 07:55:00,
2013-07-18 04:00:00,72.7,70.9,30.16,NNW,328,0.0,0.0,94,0.00,,,0.00,Wunderground v.1.15,2013-07-18 08:00:00,
2013-07-18 04:10:00,72.3,70.8,30.16,WSW,256,0.0,0.0,95,0.00,,,0.00,Wunderground v.1.15,2013-07-18 08:10:00,
2013-07-18 04:15:00,72.2,70.7,30.17,WSW,256,0.0,0.0,95,0.00,,,0.00,Wunderground v.1.15,2013-07-18 08:15:00,
2013-07-18 04:20:00,72.1,70.9,30.16,WSW,256,0.0,0.0,96,0.00,,,0.00,Wunderground v.1.15,2013-07-18 08:20:00,
2013-07-18 04:30:00,72.0,70.8,30.17,WSW,255,0.0,0.0,96,0.00,,,0.00,Wunderground v.1.15,2013-07-18 08:30:00,
2013-07-18 04:35:00,72.1,70.9,30.17,WSW,256,0.0,0.0,96,0.00,,,0.00,Wunderground v.1.15,2013-07-18 08:35:00,
2013-07-18 04:40:00,72.2,71.0,30.17,WSW,257,0.0,0.0,96,0.00,,,0.00,Wunderground v.1.15,2013-07-18 08:40:00,
2013-07-18 04:45:00,72.3,71.1,30.16,WSW,257,0.0,0.0,96,0.00,,,0.00,Wunderground v.1.15,2013-07-18 08:45:00,
2013-07-18 04:50:00,72.2,70.7,30.17,WSW,257,0.0,0.0,95,0.00,,,0.00,Wunderground v.1.15,2013-07-18 08:50:00,
2013-07-18 05:00:00,71.9,70.7,30.17,WSW,257,0.0,0.0,96,0.00,,,0.00,Wunderground v.1.15,2013-07-18 09:00:00,
2013-07-18 05:10:00,71.9,71.0,30.16,WSW,257,0.0,0.0,97,0.00,,,0.00,Wunderground v.1.15,2013-07-18 09:10:00,
2013-07-18 05:15:00,72.0,71.1,30.16,WSW,257,0.0,0.0,97,0.00,,,0.00,Wunderground v.1.15,2013-07-18 09:15:00,
2013-07-18 05:20:00,72.0,71.1,30.16,WSW,257,0.0,0.0,97,0.00,,,0.00,Wunderground v.1.15,2013-07-18 09:20:00,
2013-07-18 05:25:00,71.4,69.9,30.16,WSW,257,0.0,0.0,95,0.00,,,0.00,Wunderground v.1.15,2013-07-18 09:25:00,
2013-07-18 05:35:00,71.1,70.2,30.16,WSW,257,0.0,0.0,97,0.00,,,0.00,Wunderground v.1.15,2013-07-18 09:35:00,
2013-07-18 05:40:00,71.2,70.3,30.16,WSW,257,0.0,0.0,97,0.00,,,0.00,Wunderground v.1.15,2013-07-18 09:40:00,
2013-07-18 05:45:00,71.6,71.0,30.16,WSW,257,0.0,0.0,98,0.00,,,0.00,Wunderground v.1.15,2013-07-18 09:45:00,
2013-07-18 05:50:00,71.7,71.1,30.16,WSW,257,0.0,0.0,98,0.00,,,0.00,Wunderground v.1.15,2013-07-18 09:50:00,
2013-07-18 05:55:00,71.6,70.7,30.16,WSW,257,0.0,0.0,97,0.00,,,0.00,Wunderground v.1.15,2013-07-18 09:55:00,
2013-07-18 06:00:00,71.4,70.8,30.16,WSW,257,0.0,0.0,98,0.00,,,0.00,Wunderground v.1.15,2013-07-18 10:00:00,
2013-07-18 06:10:00,71.4,70.8,30.16,WSW,257,0.0,0.0,98,0.00,,,0.00,Wunderground v.1.15,2013-07-18 10:10:00,
2013-07-18 06:15:00,71.4,70.8,30.16,WSW,257,0.0,0.0,98,0.00,,,0.00,Wunderground v.1.15,2013-07-18 10:15:00,
2013-07-18 06:20:00,71.1,70.2,30.16,WSW,257,0.0,0.0,97,0.00,,,0.00,Wunderground v.1.15,2013-07-18 10:20:00,
2013-07-18 06:25:00,71.2,70.6,30.16,WSW,257,0.0,0.0,98,0.00,,,0.00,Wunderground v.1.15,2013-07-18 10:25:00,
2013-07-18 06:35:00,70.9,70.3,30.16,NW,325,0.0,1.0,98,0.00,,,0.00,Wunderground v.1.15,2013-07-18 10:35:00,
2013-07-18 06:40:00,71.2,70.6,30.16,NW,309,0.0,0.0,98,0.00,,,0.00,Wunderground v.1.15,2013-07-18 10:40:00,
2013-07-18 06:45:00,71.2,70.6,30.16,NW,309,0.0,0.0,98,0.00,,,0.00,Wunderground v.1.15,2013-07-18 10:45:00,
2013-07-18 06:50:00,71.1,70.5,30.16,NW,309,0.0,0.0,98,0.00,,,0.00,Wunderground v.1.15,2013-07-18 10:50:00,
2013-07-18 06:55:00,71.0,70.4,30.16,NW,309,0.0,0.0,98,0.00,,,0.00,Wunderground v.1.15,2013-07-18 10:55:00,
2013-07-18 07:00:00,71.0,70.4,30.16,NW,309,0.0,0.0,98,0.00,,,0.00,Wunderground v.1.15,2013-07-18 11:00:00,
2013-07-18 07:10:00,71.2,70.6,30.16,NW,309,0.0,0.0,98,0.00,,,0.00,Wunderground v.1.15,2013-07-18 11:10:00,
2013-07-18 07:15:00,71.4,70.8,30.16,NW,308,0.0,0.0,98,0.00,,,0.00,Wunderground v.1.15,2013-07-18 11:15:00,
2013-07-18 07:20:00,71.6,70.7,30.16,NW,309,0.0,0.0,97,0.00,,,0.00,Wunderground v.1.15,2013-07-18 11:20:00,
2013-07-18 07:25:00,72.0,71.4,30.16,WNW,287,0.0,0.0,98,0.00,,,0.00,Wunderground v.1.15,2013-07-18 11:25:00,
2013-07-18 07:30:00,72.7,71.8,30.16,NW,307,0.0,1.0,97,0.00,,,0.00,Wunderground v.1.15,2013-07-18 11:30:00,
2013-07-18 07:40:00,73.8,72.3,30.16,WNW,291,1.0,1.0,95,0.00,,,0.00,Wunderground v.1.15,2013-07-18 11:40:00,
2013-07-18 07:45:00,74.4,72.6,30.16,West,277,1.0,1.0,94,0.00,,,0.00,Wunderground v.1.15,2013-07-18 11:45:00,
2013-07-18 07:50:00,74.9,72.7,30.16,SSW,212,0.0,0.0,93,0.00,,,0.00,Wunderground v.1.15,2013-07-18 11:50:00,
2013-07-18 07:55:00,75.7,73.2,30.16,SSW,212,0.0,1.0,92,0.00,,,0.00,Wunderground v.1.15,2013-07-18 11:55:00,
2013-07-18 08:00:00,76.2,73.7,30.16,SW,219,1.0,1.0,92,0.00,,,0.00,Wunderground v.1.15,2013-07-18 12:00:00,
2013-07-18 08:10:00,76.7,73.5,30.16,West,259,1.0,1.0,90,0.00,,,0.00,Wunderground v.1.15,2013-07-18 12:10:00,
2013-07-18 08:15:00,77.1,74.3,30.16,WSW,248,1.0,1.0,91,0.00,,,0.00,Wunderground v.1.15,2013-07-18 12:15:00,
2013-07-18 08:20:00,77.5,74.0,30.16,WSW,238,1.0,2.0,89,0.00,,,0.00,Wunderground v.1.15,2013-07-18 12:20:00,
2013-07-18 08:25:00,77.9,74.1,30.16,WSW,242,1.0,2.0,88,0.00,,,0.00,Wunderground v.1.15,2013-07-18 12:25:00,
2013-07-18 08:30:00,78.2,74.7,30.16,WSW,245,1.0,1.0,89,0.00,,,0.00,Wunderground v.1.15,2013-07-18 12:30:00,
2013-07-18 08:35:00,78.7,74.8,30.16,WSW,248,1.0,1.0,88,0.00,,,0.00,Wunderground v.1.15,2013-07-18 12:35:00,
2013-07-18 08:45:00,79.5,74.9,30.16,WNW,293,1.0,2.0,86,0.00,,,0.00,Wunderground v.1.15,2013-07-18 12:45:00,
2013-07-18 08:50:00,79.7,75.1,30.16,West,263,2.0,2.0,86,0.00,,,0.00,Wunderground v.1.15,2013-07-18 12:50:00,
2013-07-18 08:55:00,80.0,75.4,30.16,West,274,2.0,2.0,86,0.00,,,0.00,Wunderground v.1.15,2013-07-18 12:55:00,
2013-07-18 09:00:00,80.3,75.4,30.16,West,259,2.0,2.0,85,0.00,,,0.00,Wunderground v.1.15,2013-07-18 13:00:00,
2013-07-18 09:10:00,80.8,75.5,30.16,WNW,300,2.0,2.0,84,0.00,,,0.00,Wunderground v.1.15,2013-07-18 13:10:00,
2013-07-18 09:20:00,81.6,76.3,30.15,WSW,249,2.0,2.0,84,0.00,,,0.00,Wunderground v.1.15,2013-07-18 13:20:00,
2013-07-18 09:25:00,82.1,76.1,30.15,WNW,285,2.0,4.0,82,0.00,,,0.00,Wunderground v.1.15,2013-07-18 13:25:00,
2013-07-18 09:30:00,82.4,76.0,30.15,NW,316,2.0,3.0,81,0.00,,,0.00,Wunderground v.1.15,2013-07-18 13:30:00,
2013-07-18 09:35:00,82.6,76.2,30.15,WSW,238,3.0,4.0,81,0.00,,,0.00,Wunderground v.1.15,2013-07-18 13:35:00,
2013-07-18 09:40:00,82.8,76.7,30.15,WNW,302,3.0,5.0,82,0.00,,,0.00,Wunderground v.1.15,2013-07-18 13:40:00,
2013-07-18 09:45:00,83.2,76.8,30.15,WSW,253,3.0,5.0,81,0.00,,,0.00,Wunderground v.1.15,2013-07-18 13:45:00,
2013-07-18 09:50:00,83.6,76.8,30.15,NNW,341,2.0,2.0,80,0.00,,,0.00,Wunderground v.1.15,2013-07-18 13:50:00,
2013-07-18 09:55:00,83.8,76.2,30.15,WNW,299,2.0,4.0,78,0.00,,,0.00,Wunderground v.1.15,2013-07-18 13:55:00,
2013-07-18 10:00:00,83.9,75.9,30.15,NW,316,3.0,3.0,77,0.00,,,0.00,Wunderground v.1.15,2013-07-18 14:00:00,
2013-07-18 10:10:00,84.3,76.3,30.14,NW,321,2.0,2.0,77,0.00,,,0.00,Wunderground v.1.15,2013-07-18 14:10:00,
2013-07-18 10:20:00,85.0,76.6,30.14,WNW,287,3.0,3.0,76,0.00,,,0.00,Wunderground v.1.15,2013-07-18 14:20:00,
2013-07-18 10:25:00,85.1,76.3,30.15,West,262,2.0,3.0,75,0.00,,,0.00,Wunderground v.1.15,2013-07-18 14:25:00,
2013-07-18 10:30:00,85.3,76.1,30.14,WNW,302,3.0,3.0,74,0.00,,,0.00,Wunderground v.1.15,2013-07-18 14:30:00,
2013-07-18 10:35:00,85.4,76.6,30.14,WSW,249,3.0,3.0,75,0.00,,,0.00,Wunderground v.1.15,2013-07-18 14:35:00,
2013-07-18 10:40:00,85.5,76.7,30.15,West,278,3.0,4.0,75,0.00,,,0.00,Wunderground v.1.15,2013-07-18 14:40:00,
2013-07-18 10:45:00,85.9,77.1,30.15,SSW,204,3.0,4.0,75,0.00,,,0.00,Wunderground v.1.15,2013-07-18 14:45:00,
2013-07-18 10:55:00,86.1,76.4,30.14,WSW,257,3.0,6.0,73,0.00,,,0.00,Wunderground v.1.15,2013-07-18 14:55:00,
2013-07-18 11:00:00,86.3,76.6,30.14,WSW,256,4.0,4.0,73,0.00,,,0.00,Wunderground v.1.15,2013-07-18 15:00:00,
2013-07-18 11:10:00,86.4,76.7,30.14,WSW,250,4.0,4.0,73,0.00,,,0.00,Wunderground v.1.15,2013-07-18 15:10:00,
2013-07-18 11:15:00,87.1,78.2,30.14,SW,236,3.0,5.0,75,0.00,,,0.00,Wunderground v.1.15,2013-07-18 15:15:00,
2013-07-18 11:25:00,87.1,76.5,30.14,West,277,3.0,4.0,71,0.00,,,0.00,Wunderground v.1.15,2013-07-18 15:25:00,
2013-07-18 11:30:00,87.2,77.1,30.14,WNW,293,3.0,5.0,72,0.00,,,0.00,Wunderground v.1.15,2013-07-18 15:30:00,
2013-07-18 11:35:00,87.2,76.6,30.14,West,266,3.0,5.0,71,0.00,,,0.00,Wunderground v.1.15,2013-07-18 15:35:00,
2013-07-18 11:40:00,87.8,77.2,30.14,SW,226,3.0,3.0,71,0.00,,,0.00,Wunderground v.1.15,2013-07-18 15:40:00,
2013-07-18 11:45:00,88.4,77.4,30.14,WSW,253,3.0,3.0,70,0.00,,,0.00,Wunderground v.1.15,2013-07-18 15:45:00,
2013-07-18 11:50:00,88.5,75.7,30.14,SSW,205,4.0,4.0,66,0.00,,,0.00,Wunderground v.1.15,2013-07-18 15:50:00,
2013-07-18 12:00:00,88.9,75.6,30.14,South,176,4.0,4.0,65,0.00,,,0.00,Wunderground v.1.15,2013-07-18 16:00:00,
2013-07-18 12:10:00,88.7,75.0,30.13,WNW,282,5.0,7.0,64,0.00,,,0.00,Wunderground v.1.15,2013-07-18 16:10:00,
2013-07-18 12:15:00,88.8,74.6,30.13,WSW,249,5.0,7.0,63,0.00,,,0.00,Wunderground v.1.15,2013-07-18 16:15:00,
2013-07-18 12:20:00,89.2,76.8,30.13,SW,219,4.0,7.0,67,0.00,,,0.00,Wunderground v.1.15,2013-07-18 16:20:00,
2013-07-18 12:30:00,88.7,75.9,30.13,SW,228,4.0,4.0,66,0.00,,,0.00,Wunderground v.1.15,2013-07-18 16:30:00,
2013-07-18 12:35:00,88.9,75.6,30.13,WNW,302,4.0,4.0,65,0.00,,,0.00,Wunderground v.1.15,2013-07-18 16:35:00,
2013-07-18 12:40:00,89.2,75.4,30.13,SSW,212,4.0,4.0,64,0.00,,,0.00,Wunderground v.1.15,2013-07-18 16:40:00,
2013-07-18 12:45:00,89.6,76.3,30.13,SW,226,4.0,4.0,65,0.00,,,0.00,Wunderground v.1.15,2013-07-18 16:45:00,
2013-07-18 12:50:00,89.5,74.3,30.13,WSW,238,4.0,5.0,61,0.00,,,0.00,Wunderground v.1.15,2013-07-18 16:50:00,
2013-07-18 12:55:00,89.4,73.7,30.13,WSW,253,5.0,6.0,60,0.00,,,0.00,Wunderground v.1.15,2013-07-18 16:55:00,
2013-07-18 13:00:00,89.2,75.0,30.12,WSW,251,5.0,6.0,63,0.00,,,0.00,Wunderground v.1.15,2013-07-18 17:00:00,
2013-07-18 13:10:00,89.2,74.0,30.12,West,275,4.0,4.0,61,0.00,,,0.00,Wunderground v.1.15,2013-07-18 17:10:00,
2013-07-18 13:15:00,89.5,75.2,30.12,WNW,301,4.0,4.0,63,0.00,,,0.00,Wunderground v.1.15,2013-07-18 17:15:00,
2013-07-18 13:20:00,89.7,75.4,30.11,West,259,4.0,6.0,63,0.00,,,0.00,Wunderground v.1.15,2013-07-18 17:20:00,
2013-07-18 13:25:00,89.7,74.9,30.11,SSW,201,5.0,6.0,62,0.00,,,0.00,Wunderground v.1.15,2013-07-18 17:25:00,
2013-07-18 13:35:00,90.5,75.7,30.11,SW,236,4.0,5.0,62,0.00,,,0.00,Wunderground v.1.15,2013-07-18 17:35:00,
2013-07-18 13:40:00,90.7,74.9,30.11,WNW,302,4.0,5.0,60,0.00,,,0.00,Wunderground v.1.15,2013-07-18 17:40:00,
2013-07-18 13:45:00,90.2,75.4,30.10,West,259,5.0,5.0,62,0.00,,,0.00,Wunderground v.1.15,2013-07-18 17:45:00,
2013-07-18 13:50:00,90.2,74.9,30.10,WSW,256,5.0,5.0,61,0.00,,,0.00,Wunderground v.1.15,2013-07-18 17:50:00,
2013-07-18 13:55:00,90.3,75.5,30.10,NW,305,4.0,6.0,62,0.00,,,0.00,Wunderground v.1.15,2013-07-18 17:55:00,
2013-07-18 14:00:00,90.5,75.7,30.10,West,263,5.0,7.0,62,0.00,,,0.00,Wunderground v.1.15,2013-07-18 18:00:00,
2013-07-18 14:05:00,90.2,75.4,30.10,SW,236,5.0,7.0,62,0.00,,,0.00,Wunderground v.1.15,2013-07-18 18:05:00,
2013-07-18 14:10:00,90.3,75.0,30.10,SSW,208,5.0,5.0,61,0.00,,,0.00,Wunderground v.1.15,2013-07-18 18:10:00,
2013-07-18 14:15:00,90.1,74.8,30.10,West,259,5.0,5.0,61,0.00,,,0.00,Wunderground v.1.15,2013-07-18 18:15:00,
2013-07-18 14:20:00,89.8,75.0,30.10,WSW,245,5.0,7.0,62,0.00,,,0.00,Wunderground v.1.15,2013-07-18 18:20:00,
2013-07-18 14:30:00,89.4,75.1,30.10,SSW,197,6.0,6.0,63,0.00,,,0.00,Wunderground v.1.15,2013-07-18 18:30:00,
2013-07-18 14:35:00,89.5,75.2,30.10,SW,229,6.0,8.0,63,0.00,,,0.00,Wunderground v.1.15,2013-07-18 18:35:00,
2013-07-18 14:40:00,89.2,73.0,30.10,SW,215,7.0,7.0,59,0.00,,,0.00,Wunderground v.1.15,2013-07-18 18:40:00,
2013-07-18 14:45:00,89.4,75.1,30.10,SW,229,7.0,7.0,63,0.00,,,0.00,Wunderground v.1.15,2013-07-18 18:45:00,
2013-07-18 14:50:00,89.6,75.8,30.10,West,266,5.0,5.0,64,0.00,,,0.00,Wunderground v.1.15,2013-07-18 18:50:00,
2013-07-18 14:55:00,89.9,76.1,30.10,WSW,248,4.0,6.0,64,0.00,,,0.00,Wunderground v.1.15,2013-07-18 18:55:00,
2013-07-18 15:00:00,89.6,77.2,30.09,West,264,5.0,7.0,67,0.00,,,0.00,Wunderground v.1.15,2013-07-18 19:00:00,
2013-07-18 15:10:00,90.4,77.0,30.09,WSW,248,5.0,5.0,65,0.00,,,0.00,Wunderground v.1.15,2013-07-18 19:10:00,
2013-07-18 15:15:00,90.3,75.5,30.09,SSW,207,5.0,7.0,62,0.00,,,0.00,Wunderground v.1.15,2013-07-18 19:15:00,
2013-07-18 15:20:00,90.3,76.5,30.08,WSW,256,6.0,6.0,64,0.00,,,0.00,Wunderground v.1.15,2013-07-18 19:20:00,
2013-07-18 15:25:00,90.2,74.4,30.08,SW,229,6.0,7.0,60,0.00,,,0.00,Wunderground v.1.15,2013-07-18 19:25:00,
2013-07-18 15:30:00,89.5,75.2,30.08,WSW,244,5.0,5.0,63,0.00,,,0.00,Wunderground v.1.15,2013-07-18 19:30:00,
2013-07-18 15:35:00,88.5,73.3,30.08,SW,226,4.0,5.0,61,0.00,,,0.00,Wunderground v.1.15,2013-07-18 19:35:00,
2013-07-18 15:45:00,86.2,74.0,30.08,WNW,297,6.0,8.0,67,0.00,,,0.00,Wunderground v.1.15,2013-07-18 19:45:00,
2013-07-18 15:50:00,85.2,74.3,30.07,WNW,289,6.0,7.0,70,0.00,,,0.00,Wunderground v.1.15,2013-07-18 19:50:00,
2013-07-18 15:55:00,84.4,74.0,30.07,WNW,302,7.0,7.0,71,0.00,,,0.00,Wunderground v.1.15,2013-07-18 19:55:00,
2013-07-18 16:00:00,83.9,73.5,30.07,WNW,290,6.0,7.0,71,0.00,,,0.00,Wunderground v.1.15,2013-07-18 20:00:00,
2013-07-18 16:10:00,83.7,73.7,30.07,WNW,294,6.0,6.0,72,0.00,,,0.00,Wunderground v.1.15,2013-07-18 20:10:00,
2013-07-18 16:15:00,83.8,74.2,30.06,WNW,295,5.0,7.0,73,0.00,,,0.00,Wunderground v.1.15,2013-07-18 20:15:00,
2013-07-18 16:20:00,84.1,74.5,30.06,WNW,301,5.0,5.0,73,0.00,,,0.00,Wunderground v.1.15,2013-07-18 20:20:00,
2013-07-18 16:25:00,84.7,75.1,30.06,NW,318,4.0,5.0,73,0.00,,,0.00,Wunderground v.1.15,2013-07-18 20:25:00,
2013-07-18 16:30:00,85.7,75.2,30.06,SW,229,3.0,4.0,71,0.00,,,0.00,Wunderground v.1.15,2013-07-18 20:30:00,
2013-07-18 16:35:00,86.7,76.2,30.05,WNW,284,3.0,5.0,71,0.00,,,0.00,Wunderground v.1.15,2013-07-18 20:35:00,
2013-07-18 16:40:00,87.5,72.9,30.05,SW,224,3.0,4.0,62,0.00,,,0.00,Wunderground v.1.15,2013-07-18 20:40:00,
2013-07-18 16:50:00,88.5,73.8,30.05,West,261,4.0,6.0,62,0.00,,,0.00,Wunderground v.1.15,2013-07-18 20:50:00,
2013-07-18 16:55:00,89.0,75.2,30.05,West,278,4.0,6.0,64,0.00,,,0.00,Wunderground v.1.15,2013-07-18 20:55:00,
2013-07-18 17:00:00,89.2,75.4,30.05,WSW,246,4.0,4.0,64,0.00,,,0.00,Wunderground v.1.15,2013-07-18 21:00:00,
2013-07-18 17:10:00,89.5,73.8,30.04,NW,318,4.0,4.0,60,0.00,,,0.00,Wunderground v.1.15,2013-07-18 21:10:00,
2013-07-18 17:20:00,89.6,74.9,30.04,NW,311,4.0,4.0,62,0.00,,,0.00,Wunderground v.1.15,2013-07-18 21:20:00,
2013-07-18 17:25:00,89.6,75.3,30.04,NW,305,5.0,5.0,63,0.00,,,0.00,Wunderground v.1.15,2013-07-18 21:25:00,
2013-07-18 17:30:00,89.5,74.8,30.03,WSW,248,5.0,5.0,62,0.00,,,0.00,Wunderground v.1.15,2013-07-18 21:30:00,
2013-07-18 17:35:00,89.5,74.8,30.03,WSW,248,5.0,5.0,62,0.00,,,0.00,Wunderground v.1.15,2013-07-18 21:35:00,
2013-07-18 17:40:00,89.8,76.5,30.03,WNW,283,3.0,5.0,65,0.00,,,0.00,Wunderground v.1.15,2013-07-18 21:40:00,
2013-07-18 17:45:00,89.7,74.5,30.03,SW,220,4.0,5.0,61,0.00,,,0.00,Wunderground v.1.15,2013-07-18 21:45:00,
2013-07-18 17:55:00,89.8,74.6,30.03,SW,226,4.0,5.0,61,0.00,,,0.00,Wunderground v.1.15,2013-07-18 21:55:00,
2013-07-18 18:00:00,89.8,74.6,30.02,WNW,302,3.0,4.0,61,0.00,,,0.00,Wunderground v.1.15,2013-07-18 22:00:00,
2013-07-18 18:10:00,89.7,74.5,30.02,WNW,290,4.0,4.0,61,0.00,,,0.00,Wunderground v.1.15,2013-07-18 22:10:00,
2013-07-18 18:15:00,89.7,74.5,30.02,WSW,253,3.0,4.0,61,0.00,,,0.00,Wunderground v.1.15,2013-07-18 22:15:00,
2013-07-18 18:25:00,89.4,75.1,30.01,WNW,302,4.0,5.0,63,0.00,,,0.00,Wunderground v.1.15,2013-07-18 22:25:00,
2013-07-18 18:30:00,89.3,75.5,30.01,SW,233,4.0,4.0,64,0.00,,,0.00,Wunderground v.1.15,2013-07-18 22:30:00,
2013-07-18 18:35:00,89.4,75.1,30.01,West,266,3.0,4.0,63,0.00,,,0.00,Wunderground v.1.15,2013-07-18 22:35:00,
2013-07-18 18:40:00,89.4,75.6,30.01,SW,226,3.0,3.0,64,0.00,,,0.00,Wunderground v.1.15,2013-07-18 22:40:00,
2013-07-18 18:45:00,89.3,75.5,30.00,West,265,3.0,3.0,64,0.00,,,0.00,Wunderground v.1.15,2013-07-18 22:45:00,
2013-07-18 18:50:00,89.0,76.2,30.00,West,269,3.0,3.0,66,0.00,,,0.00,Wunderground v.1.15,2013-07-18 22:50:00,
2013-07-18 18:55:00,88.6,75.8,30.00,SW,226,3.0,3.0,66,0.00,,,0.00,Wunderground v.1.15,2013-07-18 22:55:00,
2013-07-18 19:00:00,88.2,75.4,30.00,WSW,243,3.0,6.0,66,0.00,,,0.00,Wunderground v.1.15,2013-07-18 23:00:00,
2013-07-18 19:10:00,88.0,76.1,30.00,SW,226,2.0,2.0,68,0.00,,,0.00,Wunderground v.1.15,2013-07-18 23:10:00,
2013-07-18 19:15:00,88.2,76.7,30.00,SW,229,2.0,2.0,69,0.00,,,0.00,Wunderground v.1.15,2013-07-18 23:15:00,
2013-07-18 19:20:00,88.4,76.5,29.99,West,265,2.0,2.0,68,0.00,,,0.00,Wunderground v.1.15,2013-07-18 23:20:00,
2013-07-18 19:30:00,88.6,76.7,29.99,WSW,253,2.0,3.0,68,0.00,,,0.00,Wunderground v.1.15,2013-07-18 23:30:00,
2013-07-18 19:35:00,88.5,76.6,29.99,SW,222,2.0,3.0,68,0.00,,,0.00,Wunderground v.1.15,2013-07-18 23:35:00,
2013-07-18 19:40:00,88.7,77.2,29.99,West,260,2.0,2.0,69,0.00,,,0.00,Wunderground v.1.15,2013-07-18 23:40:00,
2013-07-18 19:45:00,88.7,77.2,29.99,West,262,2.0,2.0,69,0.00,,,0.00,Wunderground v.1.15,2013-07-18 23:45:00,
2013-07-18 19:50:00,88.7,77.2,29.99,West,278,2.0,2.0,69,0.00,,,0.00,Wunderground v.1.15,2013-07-18 23:50:00,
2013-07-18 20:00:00,88.7,78.1,29.99,West,261,1.0,1.0,71,0.00,,,0.00,Wunderground v.1.15,2013-07-19 00:00:00,
2013-07-18 20:10:00,88.4,77.4,29.99,West,266,1.0,1.0,70,0.00,,,0.00,Wunderground v.1.15,2013-07-19 00:10:00,
2013-07-18 20:15:00,88.2,78.0,29.99,SW,235,1.0,1.0,72,0.00,,,0.00,Wunderground v.1.15,2013-07-19 00:15:00,
2013-07-18 20:20:00,88.1,77.9,29.99,West,259,1.0,1.0,72,0.00,,,0.00,Wunderground v.1.15,2013-07-19 00:20:00,
2013-07-18 20:25:00,87.6,77.5,29.99,WSW,248,1.0,1.0,72,0.00,,,0.00,Wunderground v.1.15,2013-07-19 00:25:00,
2013-07-18 20:35:00,86.9,76.8,29.99,SW,232,1.0,4.0,72,0.00,,,0.00,Wunderground v.1.15,2013-07-19 00:35:00,
2013-07-18 20:40:00,86.3,76.2,29.99,WSW,258,2.0,2.0,72,0.00,,,0.00,Wunderground v.1.15,2013-07-19 00:40:00,
2013-07-18 20:45:00,85.8,75.7,29.98,WSW,248,2.0,4.0,72,0.00,,,0.00,Wunderground v.1.15,2013-07-19 00:45:00,
2013-07-18 20:50:00,85.4,75.3,29.98,SW,224,2.0,2.0,72,0.00,,,0.00,Wunderground v.1.15,2013-07-19 00:50:00,
2013-07-18 20:55:00,85.0,75.4,29.98,WSW,256,2.0,2.0,73,0.00,,,0.00,Wunderground v.1.15,2013-07-19 00:55:00,
2013-07-18 21:00:00,84.4,75.2,29.98,SW,229,2.0,2.0,74,0.00,,,0.00,Wunderground v.1.15,2013-07-19 01:00:00,
2013-07-18 21:10:00,83.6,74.8,29.98,SW,236,2.0,2.0,75,0.00,,,0.00,Wunderground v.1.15,2013-07-19 01:10:00,
2013-07-18 21:15:00,83.4,74.6,29.98,WSW,243,2.0,2.0,75,0.00,,,0.00,Wunderground v.1.15,2013-07-19 01:15:00,
2013-07-18 21:20:00,83.1,74.4,29.98,West,265,2.0,2.0,75,0.00,,,0.00,Wunderground v.1.15,2013-07-19 01:20:00,
2013-07-18 21:25:00,82.8,74.5,29.98,West,264,1.0,2.0,76,0.00,,,0.00,Wunderground v.1.15,2013-07-19 01:25:00,
2013-07-18 21:30:00,82.5,74.2,29.98,West,259,1.0,1.0,76,0.00,,,0.00,Wunderground v.1.15,2013-07-19 01:30:00,
2013-07-18 21:40:00,82.2,73.9,29.99,West,278,1.0,1.0,76,0.00,,,0.00,Wunderground v.1.15,2013-07-19 01:40:00,
2013-07-18 21:45:00,82.0,74.1,29.99,SW,229,1.0,1.0,77,0.00,,,0.00,Wunderground v.1.15,2013-07-19 01:45:00,
2013-07-18 21:50:00,81.8,73.9,29.99,WSW,240,1.0,1.0,77,0.00,,,0.00,Wunderground v.1.15,2013-07-19 01:50:00,
2013-07-18 21:55:00,81.6,74.1,29.99,SW,222,1.0,1.0,78,0.00,,,0.00,Wunderground v.1.15,2013-07-19 01:55:00,
2013-07-18 22:00:00,81.5,74.0,29.99,WSW,257,1.0,1.0,78,0.00,,,0.00,Wunderground v.1.15,2013-07-19 02:00:00,
2013-07-18 22:10:00,81.3,74.2,29.99,SW,226,1.0,1.0,79,0.00,,,0.00,Wunderground v.1.15,2013-07-19 02:10:00,
2013-07-18 22:15:00,81.0,74.2,29.99,WSW,240,1.0,1.0,80,0.00,,,0.00,Wunderground v.1.15,2013-07-19 02:15:00,
2013-07-18 22:20:00,80.7,74.0,29.99,SW,229,0.0,2.0,80,0.00,,,0.00,Wunderground v.1.15,2013-07-19 02:20:00,
2013-07-18 22:25:00,80.6,74.2,30.00,WSW,242,1.0,2.0,81,0.00,,,0.00,Wunderground v.1.15,2013-07-19 02:25:00,
2013-07-18 22:30:00,80.5,74.1,30.00,WSW,238,1.0,2.0,81,0.00,,,0.00,Wunderground v.1.15,2013-07-19 02:30:00,
2013-07-18 22:35:00,80.4,74.0,29.99,SW,236,2.0,3.0,81,0.00,,,0.00,Wunderground v.1.15,2013-07-19 02:35:00,
2013-07-18 22:40:00,80.3,73.9,29.99,SSW,198,2.0,2.0,81,0.00,,,0.00,Wunderground v.1.15,2013-07-19 02:40:00,
2013-07-18 22:45:00,80.2,73.8,29.99,SW,224,2.0,2.0,81,0.00,,,0.00,Wunderground v.1.15,2013-07-19 02:45:00,
2013-07-18 22:50:00,80.1,74.1,29.99,SSW,205,2.0,2.0,82,0.00,,,0.00,Wunderground v.1.15,2013-07-19 02:50:00,
2013-07-18 22:55:00,80.2,74.2,29.99,SW,232,3.0,3.0,82,0.00,,,0.00,Wunderground v.1.15,2013-07-19 02:55:00,
2013-07-18 23:00:00,80.1,74.1,30.00,SW,221,3.0,3.0,82,0.00,,,0.00,Wunderground v.1.15,2013-07-19 03:00:00,
2013-07-18 23:10:00,79.9,73.9,30.00,SW,232,3.0,3.0,82,0.00,,,0.00,Wunderground v.1.15,2013-07-19 03:10:00,
2013-07-18 23:15:00,79.7,74.1,29.99,SW,222,3.0,3.0,83,0.00,,,0.00,Wunderground v.1.15,2013-07-19 03:15:00,
2013-07-18 23:20:00,79.6,74.0,29.99,SW,229,2.0,2.0,83,0.00,,,0.00,Wunderground v.1.15,2013-07-19 03:20:00,
2013-07-18 23:25:00,79.5,74.2,29.99,WSW,256,3.0,3.0,84,0.00,,,0.00,Wunderground v.1.15,2013-07-19 03:25:00,
2013-07-18 23:30:00,79.4,74.1,29.99,WSW,254,3.0,3.0,84,0.00,,,0.00,Wunderground v.1.15,2013-07-19 03:30:00,
2013-07-18 23:35:00,79.3,74.0,29.99,SW,236,2.0,3.0,84,0.00,,,0.00,Wunderground v.1.15,2013-07-19 03:35:00,
2013-07-18 23:45:00,79.2,73.9,29.99,SW,231,2.0,2.0,84,0.00,,,0.00,Wunderground v.1.15,2013-07-19 03:45:00,
2013-07-18 23:50:00,79.1,73.8,29.99,SW,221,2.0,2.0,84,0.00,,,0.00,Wunderground v.1.15,2013-07-19 03:50:00,
2013-07-18 23:55:00,79.1,73.8,29.99,SW,216,2.0,2.0,84,0.00,,,0.00,Wunderground v.1.15,2013-07-19 03:55:00,